Time;durP1;ratioP1;P1;durP2;ratioP2;P2;SDS_P1;SDS_P2;PMS_P1;PMS_P2;Temp;Humidity;BMP_temperature;BMP_pressure;BME280_temperature;BME280_humidity;BME280_pressure;Samples;Min_cycle;Max_cycle;Signal;HPM_P1;HPM_P2
2022/01/07 00:01:43;;;;;;;21.50;3.67;;;;;;;;;;4941213;28;20030;-83
2022/01/07 00:04:09;;;;;;;15.50;3.78;;;;;;;;;;4920568;29;20019;-83
2022/01/07 00:06:35;;;;;;;13.10;3.70;;;;;;;;;;4925004;28;20091;-83
2022/01/07 00:09:01;;;;;;;9.57;3.60;;;;;;;;;;4938516;28;20093;-83
2022/01/07 00:11:27;;;;;;;26.60;5.40;;;;;;;;;;4934232;28;20031;-82
2022/01/07 00:13:53;;;;;;;13.77;2.78;;;;;;;;;;4923853;28;20034;-83
2022/01/07 00:16:19;;;;;;;10.13;3.85;;;;;;;;;;4924937;28;20035;-83
2022/01/07 00:18:45;;;;;;;14.00;4.95;;;;;;;;;;4943063;28;20035;-83
2022/01/07 00:21:12;;;;;;;12.50;4.88;;;;;;;;;;4933049;28;20078;-83
2022/01/07 00:23:38;;;;;;;6.35;2.90;;;;;;;;;;4946067;28;20028;-83
2022/01/07 00:26:04;;;;;;;15.85;4.90;;;;;;;;;;4923146;28;20027;-83
2022/01/07 00:28:30;;;;;;;6.63;3.45;;;;;;;;;;4933760;28;20042;-82
2022/01/07 00:30:56;;;;;;;16.17;4.07;;;;;;;;;;4938846;28;20043;-83
2022/01/07 00:33:22;;;;;;;20.35;4.20;;;;;;;;;;4921435;28;20498;-83
2022/01/07 00:35:48;;;;;;;17.52;4.32;;;;;;;;;;4925703;29;20059;-83
2022/01/07 00:38:14;;;;;;;12.93;3.67;;;;;;;;;;4920048;29;20032;-83
2022/01/07 00:40:41;;;;;;;10.00;4.65;;;;;;;;;;4925179;28;21384;-82
2022/01/07 00:43:07;;;;;;;10.30;4.22;;;;;;;;;;4935523;28;20130;-82
2022/01/07 00:45:33;;;;;;;5.57;3.25;;;;;;;;;;4926229;29;20031;-82
2022/01/07 00:48:00;;;;;;;10.32;3.88;;;;;;;;;;4915759;28;20499;-82
2022/01/07 00:50:27;;;;;;;10.43;2.75;;;;;;;;;;4918848;28;20031;-82
2022/01/07 00:52:53;;;;;;;19.02;5.55;;;;;;;;;;4932726;28;20062;-82
2022/01/07 00:55:19;;;;;;;7.05;3.33;;;;;;;;;;4930763;28;21132;-82
2022/01/07 00:57:46;;;;;;;9.27;3.58;;;;;;;;;;4922992;28;20039;-82
2022/01/07 01:00:14;;;;;;;11.98;3.28;;;;;;;;;;4920487;28;20039;-82
2022/01/07 01:02:40;;;;;;;9.45;4.53;;;;;;;;;;4921878;28;20251;-82
2022/01/07 01:05:08;;;;;;;9.57;3.53;;;;;;;;;;4916145;28;20442;-82
2022/01/07 01:07:34;;;;;;;17.92;6.68;;;;;;;;;;4919335;28;20150;-82
2022/01/07 01:10:01;;;;;;;17.25;5.00;;;;;;;;;;4916475;28;20139;-82
2022/01/07 01:12:27;;;;;;;8.25;3.55;;;;;;;;;;4924058;28;20114;-82
2022/01/07 01:14:53;;;;;;;7.80;3.42;;;;;;;;;;4920004;28;20126;-83
2022/01/07 01:17:19;;;;;;;12.77;6.00;;;;;;;;;;4918400;28;20035;-83
2022/01/07 01:19:45;;;;;;;16.05;4.60;;;;;;;;;;4924240;29;20928;-83
2022/01/07 01:22:11;;;;;;;8.60;2.83;;;;;;;;;;4935943;28;20696;-83
2022/01/07 01:24:38;;;;;;;17.25;4.25;;;;;;;;;;4922779;29;20083;-83
2022/01/07 01:27:04;;;;;;;6.13;2.80;;;;;;;;;;4921747;28;20038;-83
2022/01/07 01:29:32;;;;;;;10.93;4.13;;;;;;;;;;4926038;28;20408;-83
2022/01/07 01:31:58;;;;;;;13.40;5.60;;;;;;;;;;4922631;28;20491;-83
2022/01/07 01:34:24;;;;;;;12.68;4.18;;;;;;;;;;4928771;28;20046;-83
2022/01/07 01:36:50;;;;;;;15.40;5.35;;;;;;;;;;4920399;28;20596;-83
2022/01/07 01:39:16;;;;;;;23.48;7.03;;;;;;;;;;4926514;28;20523;-83
2022/01/07 01:41:43;;;;;;;16.08;5.70;;;;;;;;;;4926713;28;20059;-83
2022/01/07 01:44:09;;;;;;;12.25;4.30;;;;;;;;;;4944046;28;20054;-83
2022/01/07 01:46:36;;;;;;;6.55;3.83;;;;;;;;;;4947514;28;20030;-82
2022/01/07 01:49:02;;;;;;;10.63;4.50;;;;;;;;;;4940762;28;20039;-82
2022/01/07 01:51:28;;;;;;;11.68;2.47;;;;;;;;;;4950169;28;20035;-83
2022/01/07 01:53:54;;;;;;;17.50;6.18;;;;;;;;;;4933729;28;20047;-83
2022/01/07 01:56:20;;;;;;;11.68;4.07;;;;;;;;;;4946122;28;20035;-83
2022/01/07 01:58:46;;;;;;;12.07;3.13;;;;;;;;;;4955419;28;20055;-83
2022/01/07 02:01:12;;;;;;;10.88;3.15;;;;;;;;;;4952122;28;20059;-82
2022/01/07 02:03:38;;;;;;;20.30;4.55;;;;;;;;;;4931269;28;20043;-82
2022/01/07 02:06:04;;;;;;;5.00;2.67;;;;;;;;;;4943843;28;20027;-82
2022/01/07 02:08:31;;;;;;;17.75;3.67;;;;;;;;;;4944241;28;20447;-82
2022/01/07 02:11:00;;;;;;;12.38;4.57;;;;;;;;;;4941973;28;20062;-82
2022/01/07 02:13:26;;;;;;;20.08;5.03;;;;;;;;;;4943194;28;20480;-82
2022/01/07 02:15:52;;;;;;;7.03;4.32;;;;;;;;;;4942441;28;20523;-82
2022/01/07 02:18:18;;;;;;;11.00;4.13;;;;;;;;;;4946178;28;20070;-82
2022/01/07 02:20:44;;;;;;;11.43;3.58;;;;;;;;;;4938994;28;20655;-82
2022/01/07 02:23:10;;;;;;;20.63;5.28;;;;;;;;;;4946045;28;20031;-82
2022/01/07 02:25:36;;;;;;;9.15;3.75;;;;;;;;;;4940248;28;20086;-82
2022/01/07 02:28:03;;;;;;;8.75;4.03;;;;;;;;;;4951307;28;20026;-82
2022/01/07 02:30:30;;;;;;;17.48;5.40;;;;;;;;;;4943018;28;20035;-82
2022/01/07 02:32:58;;;;;;;18.77;6.53;;;;;;;;;;4951236;28;20122;-82
2022/01/07 02:35:25;;;;;;;14.77;5.32;;;;;;;;;;4961764;28;20031;-82
2022/01/07 02:37:52;;;;;;;20.27;6.13;;;;;;;;;;4944727;28;20045;-81
2022/01/07 02:40:18;;;;;;;19.65;4.88;;;;;;;;;;4961373;28;20145;-82
2022/01/07 02:42:44;;;;;;;17.63;6.72;;;;;;;;;;4937689;28;20090;-82
2022/01/07 02:45:10;;;;;;;15.15;5.25;;;;;;;;;;4945532;28;20440;-82
2022/01/07 02:47:49;;;;;;;14.68;4.57;;;;;;;;;;4939690;28;20030;-81
2022/01/07 02:50:16;;;;;;;11.13;3.80;;;;;;;;;;4968731;28;20084;-82
2022/01/07 02:52:42;;;;;;;12.18;4.82;;;;;;;;;;4939864;28;20027;-82
2022/01/07 02:55:08;;;;;;;12.80;4.97;;;;;;;;;;4939516;28;20038;-82
2022/01/07 02:57:34;;;;;;;6.13;3.42;;;;;;;;;;4944101;28;20061;-82
2022/01/07 03:00:00;;;;;;;16.80;5.95;;;;;;;;;;4939619;28;20892;-82
2022/01/07 03:02:26;;;;;;;9.73;5.22;;;;;;;;;;4945395;28;20027;-82
2022/01/07 03:04:52;;;;;;;9.43;4.43;;;;;;;;;;4938299;28;20026;-82
2022/01/07 03:07:18;;;;;;;12.35;5.13;;;;;;;;;;4955345;28;20436;-82
2022/01/07 03:09:44;;;;;;;9.40;5.07;;;;;;;;;;4930915;28;20042;-82
2022/01/07 03:12:10;;;;;;;10.70;4.43;;;;;;;;;;4947471;28;20073;-82
2022/01/07 03:14:37;;;;;;;15.13;5.32;;;;;;;;;;4933455;28;20035;-82
2022/01/07 03:17:03;;;;;;;8.80;3.42;;;;;;;;;;4957754;28;20684;-82
2022/01/07 03:19:29;;;;;;;7.82;3.83;;;;;;;;;;4939264;28;20069;-82
2022/01/07 03:21:55;;;;;;;16.42;7.47;;;;;;;;;;4934266;28;20030;-81
2022/01/07 03:24:21;;;;;;;10.52;4.90;;;;;;;;;;4943104;28;20050;-82
2022/01/07 03:26:47;;;;;;;17.13;4.05;;;;;;;;;;4941583;28;20030;-81
2022/01/07 03:29:13;;;;;;;15.80;4.85;;;;;;;;;;4940623;28;20053;-82
2022/01/07 03:31:39;;;;;;;4.40;2.75;;;;;;;;;;4956696;28;20057;-82
2022/01/07 03:34:05;;;;;;;14.45;4.70;;;;;;;;;;4941177;28;20473;-82
2022/01/07 03:36:31;;;;;;;12.30;6.40;;;;;;;;;;4939347;28;20798;-82
2022/01/07 03:39:00;;;;;;;12.75;4.93;;;;;;;;;;4941907;28;20038;-82
2022/01/07 03:41:27;;;;;;;16.67;6.80;;;;;;;;;;4939612;28;20027;-82
2022/01/07 03:43:53;;;;;;;9.73;5.05;;;;;;;;;;4932184;28;20054;-82
2022/01/07 03:46:19;;;;;;;9.27;5.60;;;;;;;;;;4921848;28;20555;-82
2022/01/07 03:48:45;;;;;;;12.00;5.78;;;;;;;;;;4923393;28;20035;-82
2022/01/07 03:51:11;;;;;;;18.75;6.45;;;;;;;;;;4917641;28;20095;-82
2022/01/07 03:53:37;;;;;;;16.58;5.43;;;;;;;;;;4929150;28;20056;-82
2022/01/07 03:56:03;;;;;;;12.88;3.42;;;;;;;;;;4923205;29;20594;-82
2022/01/07 03:58:29;;;;;;;10.63;2.22;;;;;;;;;;4917264;29;20495;-82
2022/01/07 04:00:55;;;;;;;9.00;5.03;;;;;;;;;;4942589;28;20030;-82
2022/01/07 04:03:21;;;;;;;13.70;6.13;;;;;;;;;;4916473;29;20024;-81
2022/01/07 04:05:47;;;;;;;18.60;8.27;;;;;;;;;;4927998;28;20032;-81
2022/01/07 04:08:13;;;;;;;7.50;4.35;;;;;;;;;;4920305;29;20053;-81
2022/01/07 04:10:40;;;;;;;11.68;4.90;;;;;;;;;;4925948;29;20373;-81
2022/01/07 04:13:06;;;;;;;5.47;3.33;;;;;;;;;;4937766;28;20420;-81
2022/01/07 04:15:33;;;;;;;10.50;4.03;;;;;;;;;;4919668;29;20027;-82
2022/01/07 04:17:59;;;;;;;8.25;4.13;;;;;;;;;;4924450;29;20039;-81
2022/01/07 04:20:26;;;;;;;13.90;5.35;;;;;;;;;;4934389;28;20399;-81
2022/01/07 04:22:53;;;;;;;15.70;4.97;;;;;;;;;;4925618;28;20058;-81
2022/01/07 04:25:20;;;;;;;9.60;4.35;;;;;;;;;;4932902;28;20031;-81
2022/01/07 04:28:07;;;;;;;9.05;5.13;;;;;;;;;;4925861;29;20451;-81
2022/01/07 04:30:33;;;;;;;;;;;;;;;;;;4935316;28;20518;-82
2022/01/07 04:32:59;;;;;;;9.80;4.80;;;;;;;;;;4922102;28;19911;-81
2022/01/07 04:35:26;;;;;;;10.15;5.07;;;;;;;;;;4923341;28;20031;-82
2022/01/07 04:37:52;;;;;;;16.10;6.72;;;;;;;;;;4937344;28;20036;-82
2022/01/07 04:40:18;;;;;;;9.73;4.05;;;;;;;;;;4925022;29;20043;-82
2022/01/07 04:42:45;;;;;;;21.05;4.95;;;;;;;;;;4920715;28;20024;-82
2022/01/07 04:45:17;;;;;;;8.82;4.15;;;;;;;;;;4941274;28;20075;-82
2022/01/07 04:47:44;;;;;;;20.42;5.13;;;;;;;;;;4937992;28;20130;-82
2022/01/07 04:50:15;;;;;;;10.32;4.40;;;;;;;;;;4943230;28;20051;-82
2022/01/07 04:52:44;;;;;;;11.45;5.15;;;;;;;;;;4942127;28;20558;-82
2022/01/07 04:55:10;;;;;;;7.13;3.83;;;;;;;;;;4944065;28;20061;-82
2022/01/07 04:57:36;;;;;;;16.02;6.72;;;;;;;;;;4947834;28;20051;-82
2022/01/07 05:00:04;;;;;;;20.10;8.23;;;;;;;;;;4953898;28;20410;-83
2022/01/07 05:02:30;;;;;;;7.72;4.07;;;;;;;;;;4957994;28;20555;-83
2022/01/07 05:04:56;;;;;;;17.50;6.03;;;;;;;;;;4938520;28;20059;-82
2022/01/07 05:07:22;;;;;;;15.23;5.47;;;;;;;;;;4963840;28;20066;-82
2022/01/07 05:09:48;;;;;;;12.07;4.63;;;;;;;;;;4944717;28;20376;-82
2022/01/07 05:12:14;;;;;;;18.20;7.15;;;;;;;;;;4944293;28;20026;-82
2022/01/07 05:14:40;;;;;;;13.57;5.45;;;;;;;;;;4937849;28;20388;-82
2022/01/07 05:17:06;;;;;;;7.43;4.57;;;;;;;;;;4951862;28;20587;-82
2022/01/07 05:19:38;;;;;;;10.63;3.35;;;;;;;;;;4938759;28;20724;-82
2022/01/07 05:22:04;;;;;;;15.75;5.85;;;;;;;;;;4957062;28;20558;-82
2022/01/07 05:24:30;;;;;;;9.48;4.30;;;;;;;;;;4965405;28;20018;-82
2022/01/07 05:26:56;;;;;;;7.20;4.07;;;;;;;;;;4945527;28;20186;-82
2022/01/07 05:29:22;;;;;;;12.23;6.07;;;;;;;;;;4947721;28;20126;-84
2022/01/07 05:31:48;;;;;;;4.80;3.05;;;;;;;;;;4940085;28;20217;-82
2022/01/07 05:34:14;;;;;;;14.95;6.32;;;;;;;;;;4933932;28;20476;-82
2022/01/07 05:36:40;;;;;;;13.13;4.93;;;;;;;;;;4939323;28;20031;-82
2022/01/07 05:39:06;;;;;;;6.53;3.63;;;;;;;;;;4939156;28;20490;-83
2022/01/07 05:41:33;;;;;;;7.93;4.03;;;;;;;;;;4948276;28;20033;-83
2022/01/07 05:43:59;;;;;;;3.42;3.08;;;;;;;;;;4942844;28;20046;-83
2022/01/07 05:46:25;;;;;;;8.63;5.32;;;;;;;;;;4949365;28;20090;-83
2022/01/07 05:48:51;;;;;;;10.60;4.20;;;;;;;;;;4938071;28;20481;-83
2022/01/07 05:51:17;;;;;;;15.10;6.53;;;;;;;;;;4946192;28;20034;-83
2022/01/07 05:53:43;;;;;;;11.15;5.20;;;;;;;;;;4942899;28;20030;-83
2022/01/07 05:56:09;;;;;;;10.48;5.32;;;;;;;;;;4945229;28;20194;-83
2022/01/07 05:58:36;;;;;;;11.05;5.20;;;;;;;;;;4936553;28;20570;-83
2022/01/07 06:01:04;;;;;;;15.50;6.13;;;;;;;;;;4950247;28;20487;-83
2022/01/07 06:03:30;;;;;;;14.10;5.00;;;;;;;;;;4941598;28;20022;-83
2022/01/07 06:05:56;;;;;;;5.45;3.10;;;;;;;;;;4966698;28;20039;-83
2022/01/07 06:08:22;;;;;;;7.05;3.75;;;;;;;;;;4946199;28;20027;-83
2022/01/07 06:10:48;;;;;;;10.60;5.47;;;;;;;;;;4934425;28;20038;-83
2022/01/07 06:13:14;;;;;;;11.10;5.25;;;;;;;;;;4960399;28;20062;-83
2022/01/07 06:15:40;;;;;;;11.80;4.72;;;;;;;;;;4941072;28;20073;-83
2022/01/07 06:18:07;;;;;;;8.23;3.78;;;;;;;;;;4944877;28;20039;-83
2022/01/07 06:20:33;;;;;;;27.38;6.63;;;;;;;;;;4953535;28;20031;-81
2022/01/07 06:22:59;;;;;;;11.05;4.15;;;;;;;;;;4956002;28;20415;-83
2022/01/07 06:25:25;;;;;;;16.38;4.00;;;;;;;;;;4938128;28;20039;-83
2022/01/07 06:27:51;;;;;;;8.30;4.28;;;;;;;;;;4947454;28;20439;-83
2022/01/07 06:30:18;;;;;;;8.43;4.80;;;;;;;;;;4941454;28;20058;-83
2022/01/07 06:32:44;;;;;;;17.35;6.25;;;;;;;;;;4942395;28;20454;-83
2022/01/07 06:35:10;;;;;;;10.55;5.22;;;;;;;;;;4946398;28;20381;-83
2022/01/07 06:37:36;;;;;;;10.48;6.35;;;;;;;;;;4942825;28;20514;-83
2022/01/07 06:40:04;;;;;;;9.73;5.35;;;;;;;;;;4941761;28;20081;-84
2022/01/07 06:42:30;;;;;;;14.52;5.55;;;;;;;;;;4941196;28;20435;-83
2022/01/07 06:44:56;;;;;;;6.45;3.65;;;;;;;;;;4940394;28;20176;-83
2022/01/07 06:47:22;;;;;;;9.65;5.57;;;;;;;;;;4918516;29;20042;-83
2022/01/07 06:49:48;;;;;;;12.07;6.18;;;;;;;;;;4934897;28;20056;-83
2022/01/07 06:52:15;;;;;;;9.45;4.72;;;;;;;;;;4941741;28;20079;-83
2022/01/07 06:54:41;;;;;;;6.38;3.10;;;;;;;;;;4922610;29;20033;-83
2022/01/07 06:57:07;;;;;;;17.08;7.10;;;;;;;;;;4926791;29;20400;-83
2022/01/07 06:59:33;;;;;;;12.23;5.35;;;;;;;;;;4921438;28;20039;-83
2022/01/07 07:01:59;;;;;;;9.30;3.00;;;;;;;;;;4922716;29;20495;-83
2022/01/07 07:04:25;;;;;;;10.63;5.82;;;;;;;;;;4918061;29;20035;-83
2022/01/07 07:06:51;;;;;;;9.13;4.15;;;;;;;;;;4921836;28;20032;-82
2022/01/07 07:09:18;;;;;;;11.68;6.60;;;;;;;;;;4917754;28;20098;-83
2022/01/07 07:11:44;;;;;;;11.05;5.78;;;;;;;;;;4927057;29;20035;-82
2022/01/07 07:14:10;;;;;;;15.32;6.40;;;;;;;;;;4920695;28;20055;-83
2022/01/07 07:16:36;;;;;;;8.15;3.78;;;;;;;;;;4935875;28;20041;-83
2022/01/07 07:19:03;;;;;;;10.68;5.55;;;;;;;;;;4925435;29;20039;-84
2022/01/07 07:21:29;;;;;;;8.88;4.47;;;;;;;;;;4922857;28;20510;-83
2022/01/07 07:23:55;;;;;;;7.40;4.05;;;;;;;;;;4924816;28;20024;-83
2022/01/07 07:26:21;;;;;;;10.35;5.78;;;;;;;;;;4917078;28;20031;-83
2022/01/07 07:28:47;;;;;;;12.25;6.82;;;;;;;;;;4924196;29;20157;-83
2022/01/07 07:31:16;;;;;;;9.80;3.80;;;;;;;;;;4937459;28;20035;-84
2022/01/07 07:36:27;;;;;;;4.47;3.28;;;;;;;;;;4932960;28;20040;-83
2022/01/07 07:38:54;;;;;;;8.65;5.03;;;;;;;;;;4936714;28;20041;-83
2022/01/07 07:41:20;;;;;;;10.02;6.47;;;;;;;;;;4918007;29;20036;-83
2022/01/07 07:43:50;;;;;;;12.23;6.40;;;;;;;;;;4924730;28;20676;-83
2022/01/07 07:46:16;;;;;;;16.90;8.27;;;;;;;;;;4943931;28;20117;-83
2022/01/07 07:48:43;;;;;;;10.68;6.38;;;;;;;;;;4939086;28;20455;-84
2022/01/07 07:51:09;;;;;;;13.27;6.95;;;;;;;;;;4941691;28;20484;-83
2022/01/07 07:53:35;;;;;;;8.60;4.68;;;;;;;;;;4938412;28;20042;-83
2022/01/07 07:56:01;;;;;;;11.60;7.13;;;;;;;;;;4960110;28;20031;-83
2022/01/07 07:58:27;;;;;;;12.55;7.18;;;;;;;;;;4957600;28;20495;-83
2022/01/07 08:00:54;;;;;;;19.90;9.38;;;;;;;;;;4954012;28;20021;-83
2022/01/07 08:03:21;;;;;;;13.23;6.68;;;;;;;;;;4943131;28;20101;-83
2022/01/07 08:05:47;;;;;;;21.08;7.00;;;;;;;;;;4937354;28;20058;-83
2022/01/07 08:08:13;;;;;;;11.90;6.13;;;;;;;;;;4942030;28;20399;-84
2022/01/07 08:10:46;;;;;;;12.35;5.10;;;;;;;;;;4933761;28;20056;-84
2022/01/07 08:18:24;;;;;;;18.67;6.80;;;;;;;;;;4954441;28;20071;-83
2022/01/07 08:20:53;;;;;;;36.17;4.75;;;;;;;;;;4933120;28;20081;-83
2022/01/07 08:23:20;;;;;;;23.67;8.05;;;;;;;;;;4932277;28;20031;-83
2022/01/07 08:25:46;;;;;;;13.32;5.85;;;;;;;;;;4943657;28;20434;-84
2022/01/07 08:28:14;;;;;;;22.52;9.02;;;;;;;;;;4953751;28;20114;-83
2022/01/07 08:36:10;;;;;;;16.13;6.60;;;;;;;;;;4960666;28;20054;-84
2022/01/07 08:38:37;;;;;;;15.63;8.38;;;;;;;;;;4934828;28;20046;-84
2022/01/07 08:41:03;;;;;;;17.48;8.60;;;;;;;;;;4944322;28;20038;-84
2022/01/07 08:43:42;;;;;;;31.05;7.72;;;;;;;;;;4945944;28;20043;-84
2022/01/07 08:46:09;;;;;;;17.35;8.43;;;;;;;;;;4934611;28;20515;-84
2022/01/07 08:48:35;;;;;;;12.98;7.68;;;;;;;;;;4923913;28;20035;-84
2022/01/07 08:51:01;;;;;;;19.95;7.93;;;;;;;;;;4935109;28;20107;-83
2022/01/07 08:53:28;;;;;;;14.77;7.18;;;;;;;;;;4923486;29;20135;-84
2022/01/07 08:55:54;;;;;;;25.98;10.23;;;;;;;;;;4930857;28;20070;-84
2022/01/07 08:58:20;;;;;;;13.02;7.05;;;;;;;;;;4925620;28;20857;-83
2022/01/07 09:00:46;;;;;;;12.38;7.65;;;;;;;;;;4927821;28;20384;-84
2022/01/07 09:03:13;;;;;;;21.83;10.55;;;;;;;;;;4935104;28;20031;-84
2022/01/07 09:05:39;;;;;;;20.65;8.57;;;;;;;;;;4931939;28;20028;-84
2022/01/07 09:08:07;;;;;;;22.85;9.07;;;;;;;;;;4916375;28;20050;-84
2022/01/07 09:10:33;;;;;;;28.85;11.05;;;;;;;;;;4921668;28;20034;-84
2022/01/07 09:12:59;;;;;;;24.02;11.73;;;;;;;;;;4933512;28;20031;-84
2022/01/07 09:15:25;;;;;;;14.45;7.68;;;;;;;;;;4913729;28;20032;-83
2022/01/07 09:17:51;;;;;;;20.00;9.45;;;;;;;;;;4922143;28;20050;-84
2022/01/07 09:20:17;;;;;;;19.95;9.95;;;;;;;;;;4942545;28;20376;-83
2022/01/07 09:22:43;;;;;;;21.55;9.88;;;;;;;;;;4918665;28;20053;-83
2022/01/07 09:25:10;;;;;;;29.13;10.75;;;;;;;;;;4916003;28;20845;-84
2022/01/07 09:27:36;;;;;;;11.73;5.80;;;;;;;;;;4935579;28;21591;-84
2022/01/07 09:30:03;;;;;;;24.77;9.90;;;;;;;;;;4920652;29;20078;-84
2022/01/07 09:32:29;;;;;;;19.90;8.55;;;;;;;;;;4924921;29;20373;-84
2022/01/07 09:34:55;;;;;;;34.95;9.60;;;;;;;;;;4916029;28;20078;-84
2022/01/07 09:37:21;;;;;;;23.88;10.93;;;;;;;;;;4923335;29;20080;-84
2022/01/07 09:39:47;;;;;;;29.98;11.05;;;;;;;;;;4918708;28;20027;-84
2022/01/07 09:42:13;;;;;;;25.67;12.00;;;;;;;;;;4924069;29;20033;-84
2022/01/07 09:44:41;;;;;;;22.90;10.02;;;;;;;;;;4928314;28;20190;-84
2022/01/07 09:47:07;;;;;;;21.00;9.18;;;;;;;;;;4940027;28;20046;-84
2022/01/07 09:49:34;;;;;;;26.20;11.43;;;;;;;;;;4939166;28;20034;-84
2022/01/07 09:52:04;;;;;;;14.50;6.45;;;;;;;;;;4955044;28;20467;-84
2022/01/07 09:54:30;;;;;;;12.50;6.53;;;;;;;;;;4927580;28;20047;-84
2022/01/07 09:56:56;;;;;;;20.45;9.23;;;;;;;;;;4941388;28;20104;-84
2022/01/07 09:59:22;;;;;;;23.25;7.68;;;;;;;;;;4943730;28;20031;-84
2022/01/07 10:02:04;;;;;;;20.58;8.32;;;;;;;;;;4936023;28;20030;-83
2022/01/07 10:04:35;;;;;;;31.77;12.63;;;;;;;;;;4960500;28;20094;-84
2022/01/07 10:07:21;;;;;;;19.50;8.38;;;;;;;;;;4942073;28;20030;-84
2022/01/07 10:10:05;;;;;;;21.80;9.43;;;;;;;;;;4943447;28;20391;-84
2022/01/07 10:12:34;;;;;;;20.02;6.85;;;;;;;;;;4944097;28;20489;-84
2022/01/07 10:15:10;;;;;;;24.60;5.35;;;;;;;;;;4958275;28;20035;-84
2022/01/07 10:17:36;;;;;;;;;;;;;;;;;;4942818;28;20099;-84
2022/01/07 10:20:02;;;;;;;9.27;4.10;;;;;;;;;;4955359;28;20314;-84
2022/01/07 10:22:28;;;;;;;7.07;3.33;;;;;;;;;;4948681;28;20520;-84
2022/01/07 10:24:57;;;;;;;7.45;2.55;;;;;;;;;;4942949;28;20497;-84
2022/01/07 10:27:29;;;;;;;9.38;1.70;;;;;;;;;;4936236;28;20085;-84
2022/01/07 10:29:55;;;;;;;2.20;1.42;;;;;;;;;;4945681;28;20058;-84
2022/01/07 10:32:23;;;;;;;7.30;1.70;;;;;;;;;;4944417;28;20055;-84
2022/01/07 10:35:02;;;;;;;4.88;1.80;;;;;;;;;;4944585;28;20372;-84
2022/01/07 10:37:28;;;;;;;6.13;2.17;;;;;;;;;;4953823;28;21175;-84
2022/01/07 10:39:54;;;;;;;3.85;2.42;;;;;;;;;;4944648;28;20045;-84
2022/01/07 10:42:24;;;;;;;6.90;3.15;;;;;;;;;;4938243;28;20047;-84
2022/01/07 10:45:03;;;;;;;1.90;1.77;;;;;;;;;;4933318;28;20250;-84
2022/01/07 10:47:29;;;;;;;2.30;1.70;;;;;;;;;;4924791;29;20031;-84
2022/01/07 10:50:15;;;;;;;3.83;3.10;;;;;;;;;;4939234;28;20395;-84
2022/01/07 10:52:42;;;;;;;17.95;1.95;;;;;;;;;;4936759;28;20114;-84
2022/01/07 10:55:12;;;;;;;2.38;1.23;;;;;;;;;;4920756;28;20543;-84
2022/01/07 10:57:41;;;;;;;16.10;2.28;;;;;;;;;;4925412;28;20035;-84
2022/01/07 11:00:09;;;;;;;4.18;2.30;;;;;;;;;;4916714;28;20305;-84
2022/01/07 11:02:35;;;;;;;7.70;2.28;;;;;;;;;;4922448;28;20663;-84
2022/01/07 11:05:01;;;;;;;4.28;2.03;;;;;;;;;;4927327;28;20428;-84
2022/01/07 11:07:31;;;;;;;2.10;1.20;;;;;;;;;;4932116;28;20035;-85
2022/01/07 11:09:57;;;;;;;3.75;1.63;;;;;;;;;;4927566;29;20039;-84
2022/01/07 11:12:25;;;;;;;4.82;0.93;;;;;;;;;;4922086;29;20522;-84
2022/01/07 11:14:51;;;;;;;3.58;1.77;;;;;;;;;;4927620;28;20055;-84
2022/01/07 11:17:21;;;;;;;4.80;2.25;;;;;;;;;;4920145;29;20512;-84
2022/01/07 11:20:01;;;;;;;6.32;0.77;;;;;;;;;;4931310;28;20476;-84
2022/01/07 11:22:27;;;;;;;4.93;1.60;;;;;;;;;;4936452;28;20032;-84
2022/01/07 11:24:59;;;;;;;6.20;2.50;;;;;;;;;;4923367;28;20027;-84
2022/01/07 11:27:27;;;;;;;5.28;1.25;;;;;;;;;;4927915;28;20024;-84
2022/01/07 11:29:53;;;;;;;6.18;3.35;;;;;;;;;;4919677;29;20040;-84
2022/01/07 11:32:22;;;;;;;4.32;2.50;;;;;;;;;;4923251;29;20119;-84
2022/01/07 11:34:48;;;;;;;7.95;4.00;;;;;;;;;;4924349;28;20583;-85
2022/01/07 11:37:33;;;;;;;10.75;3.67;;;;;;;;;;4929199;28;20053;-84
2022/01/07 11:39:59;;;;;;;6.50;4.05;;;;;;;;;;4919074;28;20036;-85
2022/01/07 11:42:41;;;;;;;10.02;3.95;;;;;;;;;;4936377;28;20123;-84
2022/01/07 11:45:32;;;;;;;10.00;3.78;;;;;;;;;;4935086;28;20570;-85
2022/01/07 11:48:09;;;;;;;13.93;3.95;;;;;;;;;;4957961;28;20059;-84
2022/01/07 11:50:54;;;;;;;5.95;4.22;;;;;;;;;;4953667;28;20118;-84
2022/01/07 11:53:20;;;;;;;5.03;3.17;;;;;;;;;;4943313;28;20543;-85
2022/01/07 11:55:46;;;;;;;5.75;2.50;;;;;;;;;;4944788;28;20031;-86
2022/01/07 11:58:13;;;;;;;5.10;3.17;;;;;;;;;;4942011;28;20073;-85
2022/01/07 12:00:59;;;;;;;10.48;3.28;;;;;;;;;;4958746;28;20078;-86
2022/01/07 12:03:31;;;;;;;15.05;4.10;;;;;;;;;;4941877;28;20491;-86
2022/01/07 12:05:57;;;;;;;10.27;4.32;;;;;;;;;;4937753;28;20131;-86
2022/01/07 12:09:03;;;;;;;13.68;4.57;;;;;;;;;;4944070;28;20121;-84
2022/01/07 12:11:41;;;;;;;9.32;4.40;;;;;;;;;;4945463;28;20629;-85
2022/01/07 12:14:12;;;;;;;8.90;4.00;;;;;;;;;;4944714;28;20023;-85
2022/01/07 12:16:39;;;;;;;10.43;4.80;;;;;;;;;;4943361;28;20031;-86
2022/01/07 12:19:25;;;;;;;11.40;4.40;;;;;;;;;;4936950;28;20503;-86
2022/01/07 12:21:51;;;;;;;;;;;;;;;;;;4947808;28;20454;-85
2022/01/07 12:24:38;;;;;;;5.53;2.45;;;;;;;;;;4953654;28;20366;-85
2022/01/07 12:27:08;;;;;;;12.50;5.38;;;;;;;;;;4938954;28;20165;-85
2022/01/07 12:29:35;;;;;;;5.25;3.85;;;;;;;;;;4935442;28;20518;-86
2022/01/07 12:32:04;;;;;;;12.60;5.07;;;;;;;;;;4940530;28;20712;-86
2022/01/07 12:34:31;;;;;;;15.07;5.30;;;;;;;;;;4942002;28;20121;-85
2022/01/07 12:36:58;;;;;;;11.10;4.25;;;;;;;;;;4941121;28;20526;-85
2022/01/07 12:39:26;;;;;;;15.25;5.47;;;;;;;;;;4957657;28;20034;-86
2022/01/07 12:41:53;;;;;;;13.23;5.07;;;;;;;;;;4950839;28;20468;-85
2022/01/07 12:44:19;;;;;;;12.13;4.22;;;;;;;;;;4962013;28;20023;-85
2022/01/07 12:46:50;;;;;;;11.18;4.53;;;;;;;;;;4919614;29;20138;-84
2022/01/07 12:49:16;;;;;;;9.48;3.72;;;;;;;;;;4929757;28;20039;-85
2022/01/07 12:51:42;;;;;;;11.05;4.28;;;;;;;;;;4926008;29;20042;-86
2022/01/07 12:54:08;;;;;;;7.53;3.50;;;;;;;;;;4914721;28;20036;-85
2022/01/07 12:56:35;;;;;;;8.23;3.20;;;;;;;;;;4919549;29;20034;-86
2022/01/07 12:59:11;;;;;;;11.63;3.90;;;;;;;;;;4911253;28;20075;-86
2022/01/07 13:01:37;;;;;;;12.05;3.70;;;;;;;;;;4916633;29;20059;-86
2022/01/07 13:04:05;;;;;;;7.55;3.17;;;;;;;;;;4912082;29;20063;-86
2022/01/07 13:06:31;;;;;;;15.27;3.72;;;;;;;;;;4944567;28;20035;-86
2022/01/07 13:08:57;;;;;;;10.88;3.53;;;;;;;;;;4917674;28;20568;-86
2022/01/07 13:11:23;;;;;;;6.97;3.25;;;;;;;;;;4921703;28;20039;-85
2022/01/07 13:14:09;;;;;;;4.72;2.38;;;;;;;;;;4937813;28;20105;-85
2022/01/07 13:16:36;;;;;;;23.90;3.17;;;;;;;;;;4919454;28;20035;-85
2022/01/07 13:19:09;;;;;;;10.45;3.42;;;;;;;;;;4934842;28;20044;-85
2022/01/07 13:21:38;;;;;;;9.30;2.58;;;;;;;;;;4913330;28;20507;-83
2022/01/07 13:24:04;;;;;;;15.20;3.00;;;;;;;;;;4920755;28;20026;-85
2022/01/07 13:26:32;;;;;;;13.40;2.70;;;;;;;;;;4922540;29;20055;-85
2022/01/07 13:29:13;;;;;;;4.15;1.60;;;;;;;;;;4941750;28;20035;-84
2022/01/07 13:31:42;;;;;;;9.10;2.10;;;;;;;;;;4941024;28;20059;-84
2022/01/07 13:34:08;;;;;;;11.40;2.20;;;;;;;;;;4921970;28;20576;-84
2022/01/07 13:36:44;;;;;;;8.60;2.05;;;;;;;;;;4924271;29;20044;-85
2022/01/07 13:39:10;;;;;;;8.75;2.10;;;;;;;;;;4931241;28;20059;-84
2022/01/07 13:42:03;;;;;;;8.10;2.35;;;;;;;;;;4939068;28;20036;-85
2022/01/07 13:44:30;;;;;;;12.13;3.15;;;;;;;;;;4934291;28;20061;-86
2022/01/07 13:47:04;;;;;;;8.15;1.25;;;;;;;;;;4942623;28;20488;-84
2022/01/07 13:49:34;;;;;;;3.90;1.45;;;;;;;;;;4943940;28;20487;-85
2022/01/07 13:52:02;;;;;;;6.15;1.80;;;;;;;;;;4937227;28;20619;-85
2022/01/07 13:54:35;;;;;;;5.75;1.83;;;;;;;;;;4948954;28;20026;-85
2022/01/07 13:57:04;;;;;;;10.65;1.38;;;;;;;;;;4940601;28;20415;-81
2022/01/07 13:59:59;;;;;;;9.02;1.75;;;;;;;;;;4944281;28;20054;-81
2022/01/07 14:02:27;;;;;;;8.75;2.42;;;;;;;;;;4936885;28;20039;-81
2022/01/07 14:04:57;;;;;;;5.93;1.38;;;;;;;;;;4955699;28;20022;-81
2022/01/07 14:07:27;;;;;;;4.43;1.50;;;;;;;;;;4942428;28;20027;-81
2022/01/07 14:10:06;;;;;;;11.00;2.30;;;;;;;;;;4936239;28;20060;-81
2022/01/07 14:12:33;;;;;;;10.43;2.15;;;;;;;;;;4945482;28;20047;-82
2022/01/07 14:15:06;;;;;;;6.82;1.48;;;;;;;;;;4955888;28;20518;-81
2022/01/07 14:17:32;;;;;;;4.18;1.58;;;;;;;;;;4955877;28;20035;-82
2022/01/07 14:19:59;;;;;;;12.40;1.88;;;;;;;;;;4938085;28;20046;-81
2022/01/07 14:22:25;;;;;;;9.57;2.17;;;;;;;;;;4938916;28;20925;-81
2022/01/07 14:24:52;;;;;;;16.13;2.22;;;;;;;;;;4956789;28;20491;-82
2022/01/07 14:27:44;;;;;;;3.35;1.95;;;;;;;;;;4939426;28;20435;-81
2022/01/07 14:30:15;;;;;;;6.40;1.30;;;;;;;;;;4956777;28;20112;-81
2022/01/07 14:32:41;;;;;;;8.90;1.95;;;;;;;;;;4939263;28;20495;-81
2022/01/07 14:35:08;;;;;;;11.50;2.35;;;;;;;;;;4945893;28;20030;-81
2022/01/07 14:37:35;;;;;;;9.07;2.55;;;;;;;;;;4939611;28;20027;-81
2022/01/07 14:40:02;;;;;;;28.48;9.02;;;;;;;;;;4945409;28;20422;-81
2022/01/07 14:42:28;;;;;;;17.08;3.13;;;;;;;;;;4945648;28;20203;-81
2022/01/07 14:44:54;;;;;;;4.68;1.92;;;;;;;;;;4942205;28;20088;-81
2022/01/07 14:47:33;;;;;;;5.68;2.17;;;;;;;;;;4929547;28;20563;-81
2022/01/07 14:49:59;;;;;;;8.10;2.75;;;;;;;;;;4932369;28;20562;-82
2022/01/07 14:52:25;;;;;;;15.43;3.08;;;;;;;;;;4926990;29;20114;-81
2022/01/07 14:54:52;;;;;;;13.32;2.63;;;;;;;;;;4923840;28;20191;-81